Patricia Ann — WDE2845 — position and weather

sailwx.info

Track history (hours):
 
Tides and Currents Weather Stations Pressure Air Temp Water Temp Dewpoint Dewpoint Depression Visibility Wind Speed Wind Dir Waves Ship Positions

Patricia Ann

Owner: AmNav Maritime Services, Oakland, CA. More information available from US FCC via Universal Licensing System and Coast Guard Vessel Documentation Center.

Last reported at 2015-May-06 23:33 UTC. Time now 2015-May-07 00:35 UTC.
Position N 37°49' W 122°20'.

Length 24 m; draft 4.9 m.

Type: Tug. MMSI: 367330510.

Date/timePositionNaut miles runAvg speedWind from/ knotsBaromVisibWave heightAir tempDewpointWater temp
2015-May-06 23:33N 37°49' W 122°20'1 1.0
2015-May-06 22:33N 37°49' W 122°19'0 0.0
2015-May-06 21:33N 37°49' W 122°19'0 0.0
2015-May-06 20:33N 37°49' W 122°19'0 0.0
2015-May-06 19:33N 37°49' W 122°19'2 1.8
2015-May-06 18:33N 37°48' W 122°18'2 1.5
2015-May-06 17:34N 37°48' W 122°20'1 0.8
2015-May-06 16:34N 37°48' W 122°21'0 0.0
2015-May-06 15:33N 37°48' W 122°21'1 1.1
2015-May-06 14:33N 37°49' W 122°19'1 0.7
2015-May-06 13:34N 37°49' W 122°19'0 0.0
2015-May-06 12:32N 37°49' W 122°19'0 0.0
2015-May-06 11:33N 37°49' W 122°19'0 0.0
2015-May-06 10:33N 37°49' W 122°19'0 0.0
2015-May-06 09:33N 37°49' W 122°19'0 0.0
2015-May-06 08:33N 37°49' W 122°19'0 0.0
2015-May-06 07:33N 37°49' W 122°19'0 0.0
2015-May-06 06:29N 37°49' W 122°19'0 0.0
2015-May-06 05:32N 37°49' W 122°19'0 0.0
2015-May-06 04:34N 37°49' W 122°19'0 0.0
2015-May-06 03:31N 37°49' W 122°19'0 0.0
2015-May-06 02:33N 37°49' W 122°19'0 0.1
2015-May-06 01:33N 37°49' W 122°19'1 0.7
2015-May-06 00:33N 37°49' W 122°20'0 0.3
2015-May-05 23:33N 37°49' W 122°19'1 0.5
2015-May-05 22:31N 37°49' W 122°19'0 0.0
2015-May-05 21:33N 37°49' W 122°19'0 0.0
2015-May-05 20:33N 37°49' W 122°19'0 0.0
2015-May-05 19:33N 37°49' W 122°19'0 0.0
2015-May-05 18:32N 37°49' W 122°19'0 0.0
2015-May-05 17:32N 37°49' W 122°19'0 0.0
2015-May-05 16:33N 37°49' W 122°19'0 0.0
2015-May-05 15:33N 37°49' W 122°19'0 0.0
2015-May-05 14:34N 37°49' W 122°19'0 0.0
2015-May-05 13:33N 37°49' W 122°19'0 0.0
2015-May-05 12:33N 37°49' W 122°19'0 0.0
2015-May-05 11:33N 37°49' W 122°19'0 0.0
2015-May-05 10:33N 37°49' W 122°19'1 1.2
2015-May-05 09:33N 37°49' W 122°20'0 0.3
2015-May-05 08:33N 37°49' W 122°20'1 0.9
2015-May-05 07:34N 37°49' W 122°19'0 0.0
2015-May-05 06:33N 37°49' W 122°19'0 0.0
2015-May-05 05:33N 37°49' W 122°19'0 0.0
2015-May-05 04:33N 37°49' W 122°19'1 0.7
2015-May-05 03:33N 37°49' W 122°19'0 0.4
2015-May-05 02:33N 37°49' W 122°20'1 0.7
2015-May-05 01:33N 37°48' W 122°21'0 0.0
2015-May-05 00:33N 37°48' W 122°21'6 6.3
2015-May-04 23:33N 37°54' W 122°23'1 1.1
2015-May-04 22:33N 37°55' W 122°22'4 3.5
2015-May-04 21:32N 37°56' W 122°26'4 3.4
2015-May-04 20:30N 37°53' W 122°24'6 6.0
2015-May-04 19:33N 37°49' W 122°19'2 1.9
2015-May-04 18:34N 37°48' W 122°18'1 1.1
2015-May-04 17:33N 37°48' W 122°19'1 1.2
2015-May-04 16:33N 37°48' W 122°21'0 0.2
2015-May-04 15:33N 37°48' W 122°20'2 1.9
2015-May-04 14:30N 37°48' W 122°18'1 0.8
2015-May-04 13:33N 37°48' W 122°19'2 2.5
2015-May-04 12:34N 37°48' W 122°22'3 2.9
2015-May-04 11:33N 37°49' W 122°19'0 0.0
2015-May-04 10:33N 37°49' W 122°19'0 0.0
2015-May-04 09:33N 37°49' W 122°19'0 0.0
2015-May-04 08:33N 37°49' W 122°19'0 0.0
2015-May-04 07:33N 37°49' W 122°19'0 0.0
2015-May-04 06:33N 37°49' W 122°19'0 0.0
2015-May-04 05:33N 37°49' W 122°19'0 0.0
2015-May-04 04:33N 37°49' W 122°19'0 0.4
2015-May-04 03:31N 37°49' W 122°19'1 0.9
2015-May-04 02:33N 37°49' W 122°20'1 0.9
2015-May-04 01:33N 37°49' W 122°19'0 0.4
2015-May-04 00:31N 37°49' W 122°19'0 0.0
2015-May-03 23:33N 37°49' W 122°19'0 0.0
2015-May-03 22:33N 37°49' W 122°19'0 0.0
2015-May-03 21:33N 37°49' W 122°19'2 1.6
2015-May-03 20:34N 37°48' W 122°19'1 0.7
2015-May-03 19:33N 37°48' W 122°18'1 0.7
2015-May-03 18:33N 37°48' W 122°19'2 1.7
2015-May-03 17:33N 37°49' W 122°19'0 0.0
2015-May-03 16:33N 37°49' W 122°19'0 0.0
2015-May-03 15:33N 37°49' W 122°19'0 0.0
2015-May-03 14:33N 37°49' W 122°19'0 0.0
2015-May-03 13:32N 37°49' W 122°19'0 0.0
2015-May-03 12:33N 37°49' W 122°19'0 0.0
2015-May-03 11:33N 37°49' W 122°19'0 0.0
2015-May-03 10:33N 37°49' W 122°19'1 1.2
2015-May-03 09:33N 37°49' W 122°20'1 1.1
2015-May-03 08:33N 37°49' W 122°19'0 0.0
2015-May-03 07:31N 37°49' W 122°19'7 7.0
2015-May-03 06:32N 37°54' W 122°25'12 5.9
2015-May-03 04:33N 38°03' W 122°16'3 2.8
2015-May-03 03:33N 38°03' W 122°19'9 7.9
2015-May-03 02:27N 37°56' W 122°25'0 0.1
2015-May-03 01:21N 37°56' W 122°25'3 3.3
2015-May-03 00:31N 37°53' W 122°24'6 5.8
2015-May-02 23:32N 37°49' W 122°19'0 0.0
2015-May-02 22:33N 37°49' W 122°19'0 0.0
2015-May-02 21:33N 37°49' W 122°19'0 0.0
2015-May-02 20:33N 37°49' W 122°19'0 0.0
2015-May-02 19:33N 37°49' W 122°19'0 0.0
2015-May-02 18:34N 37°49' W 122°19'0 0.0
2015-May-02 17:33N 37°49' W 122°19'0 0.0
2015-May-02 16:33N 37°49' W 122°19'0 0.0
2015-May-02 15:33N 37°49' W 122°19'1 0.7
2015-May-02 14:33N 37°49' W 122°19'1 1.4
2015-May-02 13:33N 37°48' W 122°21'1 1.1
2015-May-02 12:34N 37°49' W 122°20'1 0.9
2015-May-02 11:33N 37°49' W 122°19'0 0.0
2015-May-02 10:34N 37°49' W 122°19'0 0.0
2015-May-02 09:34N 37°49' W 122°19'0 0.0
2015-May-02 08:34N 37°49' W 122°19'0 0.0
2015-May-02 07:33N 37°49' W 122°19'0 0.0
2015-May-02 06:33N 37°49' W 122°19'0 0.0
2015-May-02 05:33N 37°49' W 122°19'0 0.0
2015-May-02 04:33N 37°49' W 122°19'0 0.0
2015-May-02 03:33N 37°49' W 122°19'0 0.0
2015-May-02 02:33N 37°49' W 122°19'0 0.0
2015-May-02 01:34N 37°49' W 122°19'0 0.0
2015-May-02 00:33N 37°49' W 122°19'0 0.0
2015-May-01 23:34N 37°49' W 122°19'0 0.0
2015-May-01 22:33N 37°49' W 122°19'0 0.0
2015-May-01 21:33N 37°49' W 122°19'0 0.0
2015-May-01 20:32N 37°49' W 122°19'0 0.0
2015-May-01 19:32N 37°49' W 122°19'0 0.0
2015-May-01 18:33N 37°49' W 122°19'2 1.5
2015-May-01 17:32N 37°48' W 122°19'0 0.1
2015-May-01 16:33N 37°48' W 122°19'1 1.2
2015-May-01 15:34N 37°49' W 122°19'2 1.8
2015-May-01 14:33N 37°48' W 122°21'0 0.3
2015-May-01 13:33N 37°48' W 122°21'1 1.1
2015-May-01 12:33N 37°49' W 122°19'0 0.0
2015-May-01 11:33N 37°49' W 122°19'0 0.2
2015-May-01 10:33N 37°49' W 122°20'1 0.8
2015-May-01 09:33N 37°49' W 122°19'0 0.0
2015-May-01 08:31N 37°49' W 122°19'0 0.0
2015-May-01 07:33N 37°49' W 122°19'0 0.0
2015-May-01 06:33N 37°49' W 122°19'0 0.0
2015-May-01 05:33N 37°49' W 122°19'0 0.0
2015-May-01 04:33N 37°49' W 122°19'0 0.0
2015-May-01 03:33N 37°49' W 122°19'0 0.0
2015-May-01 02:33N 37°49' W 122°19'0 0.0
2015-May-01 01:34N 37°49' W 122°19'0 0.0
2015-May-01 00:33N 37°49' W 122°19'2 1.8
2015-Apr-30 23:33N 37°48' W 122°18'1 0.5
2015-Apr-30 22:33N 37°48' W 122°19'1 1.5
2015-Apr-30 21:33N 37°48' W 122°21'2 1.7
2015-Apr-30 20:33N 37°49' W 122°19'0 0.0
2015-Apr-30 19:32N 37°49' W 122°19'0 0.0
2015-Apr-30 18:34N 37°49' W 122°19'0 0.0
2015-Apr-30 17:33N 37°49' W 122°19'5 4.7
2015-Apr-30 16:33N 37°46' W 122°23'0 0.1
2015-Apr-30 15:31N 37°46' W 122°23'0 0.1
2015-Apr-30 14:34N 37°46' W 122°23'0 0.0
2015-Apr-30 13:34N 37°46' W 122°23'5 4.5
2015-Apr-30 12:34N 37°49' W 122°19'0 0.2
2015-Apr-30 11:34N 37°49' W 122°19'0 0.0
2015-Apr-30 10:34N 37°49' W 122°19'0 0.0
2015-Apr-30 09:33N 37°49' W 122°19'0 0.0
2015-Apr-30 08:33N 37°49' W 122°19'0 0.0
2015-Apr-30 07:33N 37°49' W 122°19'0 0.0
2015-Apr-30 06:34N 37°49' W 122°19'0 0.0
2015-Apr-30 05:33N 37°49' W 122°19'0 0.0
2015-Apr-30 04:33N 37°49' W 122°19'0 0.0
2015-Apr-30 03:33N 37°49' W 122°19'0 0.0
2015-Apr-30 02:33N 37°49' W 122°19'1 0.6
2015-Apr-30 01:32N 37°49' W 122°19'0 0.5
2015-Apr-30 00:33N 37°49' W 122°20'1 0.7
2015-Apr-29 23:33N 37°48' W 122°21'1 0.9
2015-Apr-29 22:34N 37°49' W 122°20'1 0.8
2015-Apr-29 21:33N 37°49' W 122°19'0 0.1
2015-Apr-29 20:34N 37°49' W 122°19'0 0.0
2015-Apr-29 19:33N 37°49' W 122°19'0 0.0
2015-Apr-29 18:34N 37°49' W 122°19'0 0.0
2015-Apr-29 17:33N 37°49' W 122°19'0 0.0
2015-Apr-29 16:33N 37°49' W 122°19'0 0.0
2015-Apr-29 15:33N 37°49' W 122°19'0 0.0
2015-Apr-29 14:30N 37°49' W 122°19'5 4.6
2015-Apr-29 13:32N 37°49' W 122°24'1 0.8
2015-Apr-29 12:33N 37°48' W 122°23'4 3.7
2015-Apr-29 11:33N 37°49' W 122°19'0 0.0
2015-Apr-29 10:32N 37°49' W 122°19'0 0.0
2015-Apr-29 09:33N 37°49' W 122°19'0 0.0
2015-Apr-29 08:32N 37°49' W 122°19'0 0.0
2015-Apr-29 07:32N 37°49' W 122°19'0 0.0
2015-Apr-29 06:33N 37°49' W 122°19'0 0.0
2015-Apr-29 05:30N 37°49' W 122°19'0 0.0
2015-Apr-29 04:32N 37°49' W 122°19'0 0.0
2015-Apr-29 03:33N 37°49' W 122°19'0 0.0
2015-Apr-29 02:33N 37°49' W 122°19'0 0.0
2015-Apr-29 01:33N 37°49' W 122°19'2 1.9
2015-Apr-29 00:34N 37°48' W 122°18'0 0.3
2015-Apr-28 23:34N 37°48' W 122°18'0 0.0
2015-Apr-28 22:32N 37°48' W 122°18'8 7.6
2015-Apr-28 21:32N 37°53' W 122°25'0 0.2
2015-Apr-28 20:25N 37°53' W 122°25'6 7.4
2015-Apr-28 19:33N 37°49' W 122°19'0 0.0
2015-Apr-28 18:33N 37°49' W 122°19'0 0.0
2015-Apr-28 17:32N 37°49' W 122°19'1 0.6
2015-Apr-28 16:33N 37°49' W 122°19'1 0.5
2015-Apr-28 15:33N 37°49' W 122°20'1 0.6
2015-Apr-28 14:33N 37°48' W 122°21'1 1.3
2015-Apr-28 13:33N 37°49' W 122°19'2 2.4
2015-Apr-28 12:33N 37°48' W 122°22'3 2.7
2015-Apr-28 11:32N 37°49' W 122°19'0 0.0
2015-Apr-28 10:33N 37°49' W 122°19'0 0.0
2015-Apr-28 09:33N 37°49' W 122°19'0 0.0
2015-Apr-28 08:33N 37°49' W 122°19'0 0.0
2015-Apr-28 07:33N 37°49' W 122°19'0 0.0
2015-Apr-28 06:33N 37°49' W 122°19'0 0.0
2015-Apr-28 05:33N 37°49' W 122°19'0 0.0
2015-Apr-28 04:32N 37°49' W 122°19'2 1.6
2015-Apr-28 03:31N 37°48' W 122°19'0 0.5
2015-Apr-28 02:29N 37°48' W 122°18'0 0.2
2015-Apr-28 01:33N 37°48' W 122°19'1 0.7
2015-Apr-28 00:33N 37°48' W 122°18'3 3.2
2015-Apr-27 23:33N 37°48' W 122°22'1 1.0
2015-Apr-27 22:33N 37°48' W 122°21'2 1.8
2015-Apr-27 21:33N 37°49' W 122°19'0 0.0
2015-Apr-27 20:33N 37°49' W 122°19'0 0.0
2015-Apr-27 19:33N 37°49' W 122°19'0 0.0
2015-Apr-27 18:33N 37°49' W 122°19'0 0.0
2015-Apr-27 17:29N 37°49' W 122°19'2 1.9
2015-Apr-27 16:33N 37°48' W 122°18'1 0.7
2015-Apr-27 15:33N 37°48' W 122°17'0 0.1
2015-Apr-27 14:33N 37°48' W 122°17'1 0.7
2015-Apr-27 13:33N 37°48' W 122°18'1 1.0
2015-Apr-27 12:33N 37°48' W 122°19'2 1.5
2015-Apr-27 11:33N 37°49' W 122°19'0 0.0
2015-Apr-27 10:33N 37°49' W 122°19'0 0.0
2015-Apr-27 09:32N 37°49' W 122°19'0 0.0
2015-Apr-27 08:33N 37°49' W 122°19'0 0.0
2015-Apr-27 07:32N 37°49' W 122°19'0 0.0
2015-Apr-27 06:29N 37°49' W 122°19'0 0.0
2015-Apr-27 05:31N 37°49' W 122°19'0 0.0
2015-Apr-27 04:31N 37°49' W 122°19'0 0.0
2015-Apr-27 03:33N 37°49' W 122°19'0 0.3
2015-Apr-27 02:33N 37°49' W 122°19'1 0.9
2015-Apr-27 01:33N 37°49' W 122°20'1 0.9
2015-Apr-27 00:33N 37°49' W 122°19'  
Track history (hours):
 
Tides and Currents Weather Stations Pressure Air Temp Water Temp Dewpoint Dewpoint Depression Visibility Wind Speed Wind Dir Waves Ship Positions

Patricia Ann

Owner: AmNav Maritime Services, Oakland, CA. More information available from US FCC via Universal Licensing System and Coast Guard Vessel Documentation Center.

Last reported at 2015-May-06 23:33 UTC. Time now 2015-May-07 00:35 UTC.
Position N 37°49' W 122°20'.

Length 24 m; draft 4.9 m.

Type: Tug. MMSI: 367330510.

Date/timePositionNaut miles runAvg speedWind from/ knotsBaromVisibWave heightAir tempDewpointWater temp
2015-May-06 23:33N 37°49' W 122°20'1 1.0
2015-May-06 22:33N 37°49' W 122°19'0 0.0
2015-May-06 21:33N 37°49' W 122°19'0 0.0
2015-May-06 20:33N 37°49' W 122°19'0 0.0
2015-May-06 19:33N 37°49' W 122°19'2 1.8
2015-May-06 18:33N 37°48' W 122°18'2 1.5
2015-May-06 17:34N 37°48' W 122°20'1 0.8
2015-May-06 16:34N 37°48' W 122°21'0 0.0
2015-May-06 15:33N 37°48' W 122°21'1 1.1
2015-May-06 14:33N 37°49' W 122°19'1 0.7
2015-May-06 13:34N 37°49' W 122°19'0 0.0
2015-May-06 12:32N 37°49' W 122°19'0 0.0
2015-May-06 11:33N 37°49' W 122°19'0 0.0
2015-May-06 10:33N 37°49' W 122°19'0 0.0
2015-May-06 09:33N 37°49' W 122°19'0 0.0
2015-May-06 08:33N 37°49' W 122°19'0 0.0
2015-May-06 07:33N 37°49' W 122°19'0 0.0
2015-May-06 06:29N 37°49' W 122°19'0 0.0
2015-May-06 05:32N 37°49' W 122°19'0 0.0
2015-May-06 04:34N 37°49' W 122°19'0 0.0
2015-May-06 03:31N 37°49' W 122°19'0 0.0
2015-May-06 02:33N 37°49' W 122°19'0 0.1
2015-May-06 01:33N 37°49' W 122°19'1 0.7
2015-May-06 00:33N 37°49' W 122°20'0 0.3
2015-May-05 23:33N 37°49' W 122°19'1 0.5
2015-May-05 22:31N 37°49' W 122°19'0 0.0
2015-May-05 21:33N 37°49' W 122°19'0 0.0
2015-May-05 20:33N 37°49' W 122°19'0 0.0
2015-May-05 19:33N 37°49' W 122°19'0 0.0
2015-May-05 18:32N 37°49' W 122°19'0 0.0
2015-May-05 17:32N 37°49' W 122°19'0 0.0
2015-May-05 16:33N 37°49' W 122°19'0 0.0
2015-May-05 15:33N 37°49' W 122°19'0 0.0
2015-May-05 14:34N 37°49' W 122°19'0 0.0
2015-May-05 13:33N 37°49' W 122°19'0 0.0
2015-May-05 12:33N 37°49' W 122°19'0 0.0
2015-May-05 11:33N 37°49' W 122°19'0 0.0
2015-May-05 10:33N 37°49' W 122°19'1 1.2
2015-May-05 09:33N 37°49' W 122°20'0 0.3
2015-May-05 08:33N 37°49' W 122°20'1 0.9
2015-May-05 07:34N 37°49' W 122°19'0 0.0
2015-May-05 06:33N 37°49' W 122°19'0 0.0
2015-May-05 05:33N 37°49' W 122°19'0 0.0
2015-May-05 04:33N 37°49' W 122°19'1 0.7
2015-May-05 03:33N 37°49' W 122°19'0 0.4
2015-May-05 02:33N 37°49' W 122°20'1 0.7
2015-May-05 01:33N 37°48' W 122°21'0 0.0
2015-May-05 00:33N 37°48' W 122°21'6 6.3
2015-May-04 23:33N 37°54' W 122°23'1 1.1
2015-May-04 22:33N 37°55' W 122°22'4 3.5
2015-May-04 21:32N 37°56' W 122°26'4 3.4
2015-May-04 20:30N 37°53' W 122°24'6 6.0
2015-May-04 19:33N 37°49' W 122°19'2 1.9
2015-May-04 18:34N 37°48' W 122°18'1 1.1
2015-May-04 17:33N 37°48' W 122°19'1 1.2
2015-May-04 16:33N 37°48' W 122°21'0 0.2
2015-May-04 15:33N 37°48' W 122°20'2 1.9
2015-May-04 14:30N 37°48' W 122°18'1 0.8
2015-May-04 13:33N 37°48' W 122°19'2 2.5
2015-May-04 12:34N 37°48' W 122°22'3 2.9
2015-May-04 11:33N 37°49' W 122°19'0 0.0
2015-May-04 10:33N 37°49' W 122°19'0 0.0
2015-May-04 09:33N 37°49' W 122°19'0 0.0
2015-May-04 08:33N 37°49' W 122°19'0 0.0
2015-May-04 07:33N 37°49' W 122°19'0 0.0
2015-May-04 06:33N 37°49' W 122°19'0 0.0
2015-May-04 05:33N 37°49' W 122°19'0 0.0
2015-May-04 04:33N 37°49' W 122°19'0 0.4
2015-May-04 03:31N 37°49' W 122°19'1 0.9
2015-May-04 02:33N 37°49' W 122°20'1 0.9
2015-May-04 01:33N 37°49' W 122°19'0 0.4
2015-May-04 00:31N 37°49' W 122°19'0 0.0
2015-May-03 23:33N 37°49' W 122°19'0 0.0
2015-May-03 22:33N 37°49' W 122°19'0 0.0
2015-May-03 21:33N 37°49' W 122°19'2 1.6
2015-May-03 20:34N 37°48' W 122°19'1 0.7
2015-May-03 19:33N 37°48' W 122°18'1 0.7
2015-May-03 18:33N 37°48' W 122°19'2 1.7
2015-May-03 17:33N 37°49' W 122°19'0 0.0
2015-May-03 16:33N 37°49' W 122°19'0 0.0
2015-May-03 15:33N 37°49' W 122°19'0 0.0
2015-May-03 14:33N 37°49' W 122°19'0 0.0
2015-May-03 13:32N 37°49' W 122°19'0 0.0
2015-May-03 12:33N 37°49' W 122°19'0 0.0
2015-May-03 11:33N 37°49' W 122°19'0 0.0
2015-May-03 10:33N 37°49' W 122°19'1 1.2
2015-May-03 09:33N 37°49' W 122°20'1 1.1
2015-May-03 08:33N 37°49' W 122°19'0 0.0
2015-May-03 07:31N 37°49' W 122°19'7 7.0
2015-May-03 06:32N 37°54' W 122°25'12 5.9
2015-May-03 04:33N 38°03' W 122°16'3 2.8
2015-May-03 03:33N 38°03' W 122°19'9 7.9
2015-May-03 02:27N 37°56' W 122°25'0 0.1
2015-May-03 01:21N 37°56' W 122°25'3 3.3
2015-May-03 00:31N 37°53' W 122°24'6 5.8
2015-May-02 23:32N 37°49' W 122°19'0 0.0
2015-May-02 22:33N 37°49' W 122°19'0 0.0
2015-May-02 21:33N 37°49' W 122°19'0 0.0
2015-May-02 20:33N 37°49' W 122°19'0 0.0
2015-May-02 19:33N 37°49' W 122°19'0 0.0
2015-May-02 18:34N 37°49' W 122°19'0 0.0
2015-May-02 17:33N 37°49' W 122°19'0 0.0
2015-May-02 16:33N 37°49' W 122°19'0 0.0
2015-May-02 15:33N 37°49' W 122°19'1 0.7
2015-May-02 14:33N 37°49' W 122°19'1 1.4
2015-May-02 13:33N 37°48' W 122°21'1 1.1
2015-May-02 12:34N 37°49' W 122°20'1 0.9
2015-May-02 11:33N 37°49' W 122°19'0 0.0
2015-May-02 10:34N 37°49' W 122°19'0 0.0
2015-May-02 09:34N 37°49' W 122°19'0 0.0
2015-May-02 08:34N 37°49' W 122°19'0 0.0
2015-May-02 07:33N 37°49' W 122°19'0 0.0
2015-May-02 06:33N 37°49' W 122°19'0 0.0
2015-May-02 05:33N 37°49' W 122°19'0 0.0
2015-May-02 04:33N 37°49' W 122°19'0 0.0
2015-May-02 03:33N 37°49' W 122°19'0 0.0
2015-May-02 02:33N 37°49' W 122°19'0 0.0
2015-May-02 01:34N 37°49' W 122°19'0 0.0
2015-May-02 00:33N 37°49' W 122°19'0 0.0
2015-May-01 23:34N 37°49' W 122°19'0 0.0
2015-May-01 22:33N 37°49' W 122°19'0 0.0
2015-May-01 21:33N 37°49' W 122°19'0 0.0
2015-May-01 20:32N 37°49' W 122°19'0 0.0
2015-May-01 19:32N 37°49' W 122°19'0 0.0
2015-May-01 18:33N 37°49' W 122°19'2 1.5
2015-May-01 17:32N 37°48' W 122°19'0 0.1
2015-May-01 16:33N 37°48' W 122°19'1 1.2
2015-May-01 15:34N 37°49' W 122°19'2 1.8
2015-May-01 14:33N 37°48' W 122°21'0 0.3
2015-May-01 13:33N 37°48' W 122°21'1 1.1
2015-May-01 12:33N 37°49' W 122°19'0 0.0
2015-May-01 11:33N 37°49' W 122°19'0 0.2
2015-May-01 10:33N 37°49' W 122°20'1 0.8
2015-May-01 09:33N 37°49' W 122°19'0 0.0
2015-May-01 08:31N 37°49' W 122°19'0 0.0
2015-May-01 07:33N 37°49' W 122°19'0 0.0
2015-May-01 06:33N 37°49' W 122°19'0 0.0
2015-May-01 05:33N 37°49' W 122°19'0 0.0
2015-May-01 04:33N 37°49' W 122°19'0 0.0
2015-May-01 03:33N 37°49' W 122°19'0 0.0
2015-May-01 02:33N 37°49' W 122°19'0 0.0
2015-May-01 01:34N 37°49' W 122°19'0 0.0
2015-May-01 00:33N 37°49' W 122°19'2 1.8
2015-Apr-30 23:33N 37°48' W 122°18'1 0.5
2015-Apr-30 22:33N 37°48' W 122°19'1 1.5
2015-Apr-30 21:33N 37°48' W 122°21'2 1.7
2015-Apr-30 20:33N 37°49' W 122°19'0 0.0
2015-Apr-30 19:32N 37°49' W 122°19'0 0.0
2015-Apr-30 18:34N 37°49' W 122°19'0 0.0
2015-Apr-30 17:33N 37°49' W 122°19'5 4.7
2015-Apr-30 16:33N 37°46' W 122°23'0 0.1
2015-Apr-30 15:31N 37°46' W 122°23'0 0.1
2015-Apr-30 14:34N 37°46' W 122°23'0 0.0
2015-Apr-30 13:34N 37°46' W 122°23'5 4.5
2015-Apr-30 12:34N 37°49' W 122°19'0 0.2
2015-Apr-30 11:34N 37°49' W 122°19'0 0.0
2015-Apr-30 10:34N 37°49' W 122°19'0 0.0
2015-Apr-30 09:33N 37°49' W 122°19'0 0.0
2015-Apr-30 08:33N 37°49' W 122°19'0 0.0
2015-Apr-30 07:33N 37°49' W 122°19'0 0.0
2015-Apr-30 06:34N 37°49' W 122°19'0 0.0
2015-Apr-30 05:33N 37°49' W 122°19'0 0.0
2015-Apr-30 04:33N 37°49' W 122°19'0 0.0
2015-Apr-30 03:33N 37°49' W 122°19'0 0.0
2015-Apr-30 02:33N 37°49' W 122°19'1 0.6
2015-Apr-30 01:32N 37°49' W 122°19'0 0.5
2015-Apr-30 00:33N 37°49' W 122°20'1 0.7
2015-Apr-29 23:33N 37°48' W 122°21'1 0.9
2015-Apr-29 22:34N 37°49' W 122°20'1 0.8
2015-Apr-29 21:33N 37°49' W 122°19'0 0.1
2015-Apr-29 20:34N 37°49' W 122°19'0 0.0
2015-Apr-29 19:33N 37°49' W 122°19'0 0.0
2015-Apr-29 18:34N 37°49' W 122°19'0 0.0
2015-Apr-29 17:33N 37°49' W 122°19'0 0.0
2015-Apr-29 16:33N 37°49' W 122°19'0 0.0
2015-Apr-29 15:33N 37°49' W 122°19'0 0.0
2015-Apr-29 14:30N 37°49' W 122°19'5 4.6
2015-Apr-29 13:32N 37°49' W 122°24'1 0.8
2015-Apr-29 12:33N 37°48' W 122°23'4 3.7
2015-Apr-29 11:33N 37°49' W 122°19'0 0.0
2015-Apr-29 10:32N 37°49' W 122°19'0 0.0
2015-Apr-29 09:33N 37°49' W 122°19'0 0.0
2015-Apr-29 08:32N 37°49' W 122°19'0 0.0
2015-Apr-29 07:32N 37°49' W 122°19'0 0.0
2015-Apr-29 06:33N 37°49' W 122°19'0 0.0
2015-Apr-29 05:30N 37°49' W 122°19'0 0.0
2015-Apr-29 04:32N 37°49' W 122°19'0 0.0
2015-Apr-29 03:33N 37°49' W 122°19'0 0.0
2015-Apr-29 02:33N 37°49' W 122°19'0 0.0
2015-Apr-29 01:33N 37°49' W 122°19'2 1.9
2015-Apr-29 00:34N 37°48' W 122°18'0 0.3
2015-Apr-28 23:34N 37°48' W 122°18'0 0.0
2015-Apr-28 22:32N 37°48' W 122°18'8 7.6
2015-Apr-28 21:32N 37°53' W 122°25'0 0.2
2015-Apr-28 20:25N 37°53' W 122°25'6 7.4
2015-Apr-28 19:33N 37°49' W 122°19'0 0.0
2015-Apr-28 18:33N 37°49' W 122°19'0 0.0
2015-Apr-28 17:32N 37°49' W 122°19'1 0.6
2015-Apr-28 16:33N 37°49' W 122°19'1 0.5
2015-Apr-28 15:33N 37°49' W 122°20'1 0.6
2015-Apr-28 14:33N 37°48' W 122°21'1 1.3
2015-Apr-28 13:33N 37°49' W 122°19'2 2.4
2015-Apr-28 12:33N 37°48' W 122°22'3 2.7
2015-Apr-28 11:32N 37°49' W 122°19'0 0.0
2015-Apr-28 10:33N 37°49' W 122°19'0 0.0
2015-Apr-28 09:33N 37°49' W 122°19'0 0.0
2015-Apr-28 08:33N 37°49' W 122°19'0 0.0
2015-Apr-28 07:33N 37°49' W 122°19'0 0.0
2015-Apr-28 06:33N 37°49' W 122°19'0 0.0
2015-Apr-28 05:33N 37°49' W 122°19'0 0.0
2015-Apr-28 04:32N 37°49' W 122°19'2 1.6
2015-Apr-28 03:31N 37°48' W 122°19'0 0.5
2015-Apr-28 02:29N 37°48' W 122°18'0 0.2
2015-Apr-28 01:33N 37°48' W 122°19'1 0.7
2015-Apr-28 00:33N 37°48' W 122°18'3 3.2
2015-Apr-27 23:33N 37°48' W 122°22'1 1.0
2015-Apr-27 22:33N 37°48' W 122°21'2 1.8
2015-Apr-27 21:33N 37°49' W 122°19'0 0.0
2015-Apr-27 20:33N 37°49' W 122°19'0 0.0
2015-Apr-27 19:33N 37°49' W 122°19'0 0.0
2015-Apr-27 18:33N 37°49' W 122°19'0 0.0
2015-Apr-27 17:29N 37°49' W 122°19'2 1.9
2015-Apr-27 16:33N 37°48' W 122°18'1 0.7
2015-Apr-27 15:33N 37°48' W 122°17'0 0.1
2015-Apr-27 14:33N 37°48' W 122°17'1 0.7
2015-Apr-27 13:33N 37°48' W 122°18'1 1.0
2015-Apr-27 12:33N 37°48' W 122°19'2 1.5
2015-Apr-27 11:33N 37°49' W 122°19'0 0.0
2015-Apr-27 10:33N 37°49' W 122°19'0 0.0
2015-Apr-27 09:32N 37°49' W 122°19'0 0.0
2015-Apr-27 08:33N 37°49' W 122°19'0 0.0
2015-Apr-27 07:32N 37°49' W 122°19'0 0.0
2015-Apr-27 06:29N 37°49' W 122°19'0 0.0
2015-Apr-27 05:31N 37°49' W 122°19'0 0.0
2015-Apr-27 04:31N 37°49' W 122°19'0 0.0
2015-Apr-27 03:33N 37°49' W 122°19'0 0.3
2015-Apr-27 02:33N 37°49' W 122°19'1 0.9
2015-Apr-27 01:33N 37°49' W 122°20'1 0.9
2015-Apr-27 00:33N 37°49' W 122°19'  

Dump ship's entire track history